Dothan Regional Airport
KDHN : now visible

Airfield :











YOU CAN JOIN US ON...

 
LOGIN :

Register | Disclaimer

   EN    FR    IT 

 









Legend :    VFR   Marginal VFR   IFR   Intensive IFR   Very Intensive IFR
Visi :
Ceiling :
>= 8 km
>= 3000ft
5 to 8 km
1000 to 3000 ft
1500m to 5 km
500 to 1000 ft
800 to 1500m
200 to 500 ft
< 800m
< 200 ft
Symbols :   Thunderstorms  Fog  Heavy snow  Heavy precipitations  Wind > 20 kt






- Airport Elevation : 401 ft
- IATA code : DHN


KDHN - Dothan Regional

CURRENT METAR :
  • 231853Z 20007KT 10SM FEW041 31/21 A3004 RMK AO2 SLP166 T03110211

EXPIRED METARs :
  • 231753Z 15008KT 10SM SCT032 29/21 A3005 RMK AO2 SLP171 T02940211 10306 20222 53003
  • 231653Z 16010KT 10SM FEW035 29/21 A3003 RMK AO2 SLP165 T02890206
  • 231553Z 14007KT 10SM FEW031 29/21 A3003 RMK AO2 SLP165 T02890211 $
  • 231453Z 14005KT 10SM CLR 27/21 A3004 RMK AO2 SLP167 T02670206 50002

TAF KDHN
Valid from the 23 at 18:00 until the 24 at 18:00 UTC


231722Z 2318/2418 22007KT P6SM SCT035
FM240100 25004KT P6SM SKC
FM241100 19004KT 5SM BR SCT005
FM241400 18009KT P6SM SCT030 SCT110
KZJX FIR / North America



MET'MAP, your aeronautical weather chart ! - Copyright ORBIFLY December 2007 - Disclaimer

ORBIFLY MET'MAP TEAM :

Programming & Development : Alexandra Zaïnal
Original concept : Baudouin d'Aumeries
Technical & hardware support : Manuel Goepfert
Assistance : Marc-Olivier Méhu




SOURCES & CREDITS :

   NOAA       Earth
Advisory